createdAt,value
2023-10-29T00:01:31.960Z,99448.34
2023-10-29T00:03:59.015Z,99447.25
2023-10-29T00:06:26.162Z,99447.59
2023-10-29T00:08:53.125Z,99445.59
2023-10-29T00:11:20.070Z,99450.19
2023-10-29T00:13:47.071Z,99451.56
2023-10-29T00:16:14.410Z,99466.63
2023-10-29T00:18:41.693Z,99461.25
2023-10-29T00:21:08.588Z,99457.06
2023-10-29T00:23:35.596Z,99464.53
2023-10-29T00:26:02.646Z,99458.16
2023-10-29T00:28:29.577Z,99466.16
2023-10-29T00:30:56.837Z,99466.78
2023-10-29T00:33:24.498Z,99469.69
2023-10-29T00:35:52.167Z,99472.50
2023-10-29T00:38:19.065Z,99473.13
2023-10-29T00:40:46.486Z,99466.34
2023-10-29T00:43:15.445Z,99470.88
2023-10-29T00:45:44.426Z,99469.38
2023-10-29T00:48:13.081Z,99465.81
2023-10-29T00:50:41.102Z,99479.56
2023-10-29T00:53:08.408Z,99472.38
2023-10-29T00:55:36.978Z,99471.25
2023-10-29T00:58:05.297Z,99474.72
2023-10-29T01:00:32.331Z,99482.59
2023-10-29T01:02:59.457Z,99493.16
2023-10-29T01:05:26.451Z,99488.44
2023-10-29T01:07:53.594Z,99492.94
2023-10-29T01:10:20.472Z,99490.91
2023-10-29T01:12:47.556Z,99488.25
2023-10-29T01:15:14.621Z,99487.94
2023-10-29T01:17:43.399Z,99498.03
2023-10-29T01:20:12.861Z,99497.50
2023-10-29T01:22:39.800Z,99502.84
2023-10-29T01:25:10.844Z,99508.53
2023-10-29T01:27:38.998Z,99509.47
2023-10-29T01:30:06.821Z,99511.56
2023-10-29T01:32:34.139Z,99515.91
2023-10-29T01:35:01.097Z,99518.34
2023-10-29T01:37:27.993Z,99519.22
2023-10-29T01:39:55.086Z,99517.78
2023-10-29T01:42:22.436Z,99521.88
2023-10-29T01:44:49.494Z,99515.25
2023-10-29T01:47:16.589Z,99525.91
2023-10-29T01:49:43.915Z,99528.28
2023-10-29T01:52:10.814Z,99534.91
2023-10-29T01:54:37.795Z,99528.59
2023-10-29T01:57:06.013Z,99524.75
2023-10-29T01:59:33.607Z,99534.88
2023-10-29T02:02:00.576Z,99529.59
2023-10-29T02:04:28.342Z,99532.66
2023-10-29T02:06:55.863Z,99535.50
2023-10-29T02:09:23.667Z,99547.72
2023-10-29T02:11:50.595Z,99546.38
2023-10-29T02:14:17.700Z,99549.56
2023-10-29T02:16:44.581Z,99552.56
2023-10-29T02:19:11.554Z,99555.91
2023-10-29T02:21:38.547Z,99551.75
2023-10-29T02:24:05.774Z,99551.19
2023-10-29T02:26:32.727Z,99558.31
2023-10-29T02:29:00.394Z,99569.84
2023-10-29T02:31:27.505Z,99571.41
2023-10-29T02:33:54.659Z,99565.59
2023-10-29T02:36:22.057Z,99570.34
2023-10-29T02:38:48.968Z,99576.81
2023-10-29T02:41:15.909Z,99585.84
2023-10-29T02:43:42.833Z,99584.53
2023-10-29T02:46:11.829Z,99590.22
2023-10-29T02:48:39.179Z,99594.88
2023-10-29T02:51:12.250Z,99599.22
2023-10-29T02:53:40.763Z,99598.97
2023-10-29T02:56:07.839Z,99596.44
2023-10-29T02:58:35.358Z,99594.63
2023-10-29T03:01:09.174Z,99605.56
2023-10-29T03:03:38.316Z,99604.31
2023-10-29T03:06:06.774Z,99604.19
2023-10-29T03:08:34.929Z,99594.03
2023-10-29T03:11:02.364Z,99607.16
2023-10-29T03:13:29.516Z,99603.00
2023-10-29T03:15:57.481Z,99604.72
2023-10-29T03:18:24.709Z,99614.78
2023-10-29T03:20:51.766Z,99622.94
2023-10-29T03:23:18.759Z,99622.22
2023-10-29T03:25:46.255Z,99625.13
2023-10-29T03:28:13.712Z,99628.38
2023-10-29T03:30:40.664Z,99630.97
2023-10-29T03:33:07.886Z,99635.34
2023-10-29T03:35:34.980Z,99641.44
2023-10-29T03:38:02.042Z,99637.19
2023-10-29T03:40:29.073Z,99635.59
2023-10-29T03:42:55.947Z,99649.69
2023-10-29T03:45:22.989Z,99641.19
2023-10-29T03:47:49.930Z,99646.97
2023-10-29T03:50:18.557Z,99656.63
2023-10-29T03:52:45.907Z,99656.41
2023-10-29T03:55:12.870Z,99657.19
2023-10-29T03:57:41.107Z,99658.84
2023-10-29T04:00:08.433Z,99658.00
2023-10-29T04:02:41.112Z,99661.63
2023-10-29T04:05:10.140Z,99668.78
2023-10-29T04:07:40.393Z,99667.44
2023-10-29T04:10:09.143Z,99666.50
2023-10-29T04:12:36.122Z,99675.91
2023-10-29T04:15:06.252Z,99663.56
2023-10-29T04:17:33.761Z,99664.91
2023-10-29T04:20:00.681Z,99663.06
2023-10-29T04:22:27.669Z,99661.44
2023-10-29T04:24:54.550Z,99663.75
2023-10-29T04:27:21.417Z,99672.47
2023-10-29T04:29:48.394Z,99677.66
2023-10-29T04:32:15.383Z,99679.28
2023-10-29T04:34:42.286Z,99681.91
2023-10-29T04:37:09.250Z,99685.13
2023-10-29T04:39:36.140Z,99696.25
2023-10-29T04:42:03.296Z,99693.03
2023-10-29T04:44:30.301Z,99696.06
2023-10-29T04:46:57.246Z,99706.72
2023-10-29T04:49:25.324Z,99712.50
2023-10-29T04:51:53.501Z,99710.81
2023-10-29T04:54:21.549Z,99707.16
2023-10-29T04:56:48.474Z,99719.16
2023-10-29T04:59:15.398Z,99720.19
2023-10-29T05:01:42.289Z,99729.69
2023-10-29T05:04:09.243Z,99720.66
2023-10-29T05:06:36.183Z,99719.88
2023-10-29T05:09:03.102Z,99729.50
2023-10-29T05:11:32.451Z,99723.72
2023-10-29T05:13:59.366Z,99730.34
2023-10-29T05:16:26.361Z,99733.91
2023-10-29T05:18:53.361Z,99738.09
2023-10-29T05:21:21.844Z,99743.50
2023-10-29T05:23:48.764Z,99749.09
2023-10-29T05:26:15.711Z,99760.69
2023-10-29T05:28:42.647Z,99757.06
2023-10-29T05:31:09.559Z,99764.63
2023-10-29T05:33:37.756Z,99772.63
2023-10-29T05:36:05.607Z,99774.78
2023-10-29T05:38:32.562Z,99766.97
2023-10-29T05:40:59.508Z,99780.59
2023-10-29T05:43:26.893Z,99780.47
2023-10-29T05:45:53.719Z,99782.72
2023-10-29T05:48:20.685Z,99788.66
2023-10-29T05:50:47.685Z,99787.22
2023-10-29T05:53:14.751Z,99803.72
2023-10-29T05:55:41.786Z,99807.66
2023-10-29T05:58:08.667Z,99800.25
2023-10-29T06:00:35.607Z,99815.47
2023-10-29T06:03:02.585Z,99813.50
2023-10-29T06:05:29.727Z,99814.22
2023-10-29T06:07:57.487Z,99810.63
2023-10-29T06:10:24.343Z,99816.28
2023-10-29T06:12:51.218Z,99817.97
2023-10-29T06:15:18.235Z,99817.78
2023-10-29T06:17:46.305Z,99822.69
2023-10-29T06:20:18.400Z,99824.34
2023-10-29T06:22:46.122Z,99824.94
2023-10-29T06:25:12.977Z,99834.63
2023-10-29T06:27:39.928Z,99838.19
2023-10-29T06:30:08.028Z,99840.31
2023-10-29T06:32:35.195Z,99840.56
2023-10-29T06:35:02.118Z,99842.72
2023-10-29T06:37:29.055Z,99834.88
2023-10-29T06:39:55.896Z,99828.34
2023-10-29T06:42:22.766Z,99829.81
2023-10-29T06:44:49.914Z,99832.00
2023-10-29T06:47:17.095Z,99834.97
2023-10-29T06:49:44.214Z,99825.25
2023-10-29T06:52:11.355Z,99840.63
2023-10-29T06:54:38.340Z,99826.88
2023-10-29T06:57:08.332Z,99838.97
2023-10-29T06:59:35.394Z,99833.59
2023-10-29T07:02:02.391Z,99841.97
2023-10-29T07:04:29.580Z,99838.63
2023-10-29T07:06:56.650Z,99839.63
2023-10-29T07:09:23.495Z,99835.91
2023-10-29T07:11:50.971Z,99844.84
2023-10-29T07:14:18.015Z,99841.50
2023-10-29T07:16:45.337Z,99837.47
2023-10-29T07:19:14.108Z,99843.53
2023-10-29T07:21:42.122Z,99849.03
2023-10-29T07:24:09.923Z,99850.78
2023-10-29T07:26:37.060Z,99844.38
2023-10-29T07:29:04.316Z,99842.91
2023-10-29T07:31:32.225Z,99854.25
2023-10-29T07:33:59.302Z,99853.03
2023-10-29T07:36:26.217Z,99842.56
2023-10-29T07:38:53.317Z,99852.22
2023-10-29T07:41:20.895Z,99854.78
2023-10-29T07:43:48.771Z,99853.84
2023-10-29T07:46:16.099Z,99859.22
2023-10-29T07:48:43.510Z,99863.47
2023-10-29T07:51:11.702Z,99862.47
2023-10-29T07:53:38.753Z,99865.00
2023-10-29T07:56:13.288Z,99855.66
2023-10-29T07:58:41.495Z,99857.47
2023-10-29T08:01:16.618Z,99855.88
2023-10-29T08:03:44.862Z,99857.84
2023-10-29T08:06:12.880Z,99865.41
2023-10-29T08:08:40.696Z,99864.72
2023-10-29T08:11:07.852Z,99867.47
2023-10-29T08:13:34.831Z,99872.41
2023-10-29T08:16:03.898Z,99870.13
2023-10-29T08:18:30.940Z,99869.97
2023-10-29T08:20:57.909Z,99872.16
2023-10-29T08:23:24.876Z,99872.59
2023-10-29T08:25:51.799Z,99881.97
2023-10-29T08:28:20.262Z,99881.41
2023-10-29T08:30:50.097Z,99880.59
2023-10-29T08:33:19.184Z,99879.31
2023-10-29T08:35:46.651Z,99879.75
2023-10-29T08:38:13.783Z,99881.63
2023-10-29T08:40:40.723Z,99886.81
2023-10-29T08:43:08.352Z,99890.97
2023-10-29T08:45:42.152Z,99889.06
2023-10-29T08:48:11.455Z,99888.25
2023-10-29T08:50:38.846Z,99882.63
2023-10-29T08:53:05.870Z,99880.16
2023-10-29T08:55:35.269Z,99883.91
2023-10-29T08:58:02.160Z,99883.25
2023-10-29T09:00:38.432Z,99886.22
2023-10-29T09:03:09.665Z,99886.16
2023-10-29T09:05:37.235Z,99878.31
2023-10-29T09:08:04.310Z,99887.00
2023-10-29T09:10:31.285Z,99891.16
2023-10-29T09:12:58.099Z,99893.53
2023-10-29T09:15:24.965Z,99884.94
2023-10-29T09:17:52.006Z,99890.91
2023-10-29T09:20:19.063Z,99890.06
2023-10-29T09:22:46.008Z,99885.34
2023-10-29T09:25:12.894Z,99888.50
2023-10-29T09:27:39.807Z,99889.59
2023-10-29T09:30:08.074Z,99880.78
2023-10-29T09:32:36.563Z,99886.88
2023-10-29T09:35:05.945Z,99884.25
2023-10-29T09:37:36.153Z,99882.63
2023-10-29T09:40:04.219Z,99882.63
2023-10-29T09:42:35.569Z,99872.47
2023-10-29T09:45:04.960Z,99871.41
2023-10-29T09:47:34.864Z,99868.81
2023-10-29T09:50:02.539Z,99864.75
2023-10-29T09:52:33.722Z,99865.34
2023-10-29T09:55:02.203Z,99864.69
2023-10-29T09:57:29.139Z,99863.13
2023-10-29T09:59:56.204Z,99868.84
2023-10-29T10:02:23.905Z,99857.03
2023-10-29T10:04:52.380Z,99864.66
2023-10-29T10:07:20.942Z,99856.22
2023-10-29T10:09:55.299Z,99850.78
2023-10-29T10:12:22.974Z,99845.28
2023-10-29T10:14:50.980Z,99860.03
2023-10-29T10:17:18.435Z,99851.41
2023-10-29T10:19:45.372Z,99848.69
2023-10-29T10:22:13.057Z,99850.84
2023-10-29T10:24:47.548Z,99843.06
2023-10-29T10:27:15.522Z,99848.91
2023-10-29T10:29:42.591Z,99843.19
2023-10-29T10:32:10.081Z,99837.56
2023-10-29T10:34:40.088Z,99832.78
2023-10-29T10:37:06.995Z,99836.75
2023-10-29T10:39:34.337Z,99835.59
2023-10-29T10:42:04.370Z,99843.41
2023-10-29T10:44:32.277Z,99839.69
2023-10-29T10:47:01.322Z,99835.66
2023-10-29T10:49:32.392Z,99835.78
2023-10-29T10:52:02.854Z,99837.50
2023-10-29T10:54:31.044Z,99838.81
2023-10-29T10:56:58.062Z,99838.06
2023-10-29T10:59:25.108Z,99839.25
2023-10-29T11:01:52.236Z,99837.06
2023-10-29T11:04:20.648Z,99840.25
2023-10-29T11:06:48.257Z,99835.28
2023-10-29T11:09:16.353Z,99833.88
2023-10-29T11:11:46.275Z,99832.84
2023-10-29T11:14:18.212Z,99837.25
2023-10-29T11:16:52.358Z,99836.00
2023-10-29T11:19:35.814Z,99832.84
2023-10-29T11:22:14.982Z,99832.59
2023-10-29T11:24:42.308Z,99829.69
2023-10-29T11:27:45.592Z,99823.66
2023-10-29T11:30:17.698Z,99814.31
2023-10-29T11:32:47.219Z,99811.47
2023-10-29T11:35:18.040Z,99809.19
2023-10-29T11:37:45.563Z,99814.69
2023-10-29T11:40:24.436Z,99807.09
2023-10-29T11:42:54.680Z,99806.03
2023-10-29T11:45:30.599Z,99799.97
2023-10-29T11:48:13.114Z,99798.22
2023-10-29T11:50:41.425Z,99805.56
2023-10-29T11:53:22.651Z,99797.25
2023-10-29T11:55:52.352Z,99788.88
2023-10-29T11:58:23.880Z,99793.84
2023-10-29T12:00:50.632Z,99793.41
2023-10-29T12:03:21.945Z,99792.19
2023-10-29T12:05:52.695Z,99793.78
2023-10-29T12:08:20.710Z,99790.72
2023-10-29T12:10:51.348Z,99795.50
2023-10-29T12:13:22.554Z,99797.84
2023-10-29T12:15:57.318Z,99786.88
2023-10-29T12:18:25.695Z,99792.16
2023-10-29T12:21:05.403Z,99790.78
2023-10-29T12:23:32.926Z,99789.09
2023-10-29T12:26:08.205Z,99788.13
2023-10-29T12:28:38.999Z,99789.75
2023-10-29T12:31:09.463Z,99778.72
2023-10-29T12:33:37.802Z,99778.69
2023-10-29T12:36:06.530Z,99774.88
2023-10-29T12:38:39.089Z,99775.38
2023-10-29T12:41:09.807Z,99769.94
2023-10-29T12:43:39.139Z,99767.91
2023-10-29T12:46:11.238Z,99773.03
2023-10-29T12:49:02.185Z,99774.59
2023-10-29T12:51:36.116Z,99781.28
2023-10-29T12:54:16.827Z,99780.06
2023-10-29T12:56:57.589Z,99777.53
2023-10-29T12:59:29.537Z,99776.94
2023-10-29T13:02:01.098Z,99775.56
2023-10-29T13:04:29.014Z,99773.63
2023-10-29T13:06:57.401Z,99768.97
2023-10-29T13:09:26.762Z,99767.47
2023-10-29T13:11:54.233Z,99767.50
2023-10-29T13:14:23.553Z,99773.69
2023-10-29T13:16:54.366Z,99766.50
2023-10-29T13:19:22.465Z,99755.94
2023-10-29T13:21:53.705Z,99757.78
2023-10-29T13:24:21.204Z,99760.47
2023-10-29T13:26:48.744Z,99761.56
2023-10-29T13:29:15.853Z,99764.44
2023-10-29T13:31:44.437Z,99767.31
2023-10-29T13:34:11.620Z,99763.63
2023-10-29T13:36:39.177Z,99759.78
2023-10-29T13:39:07.233Z,99761.34
2023-10-29T13:41:35.252Z,99756.91
2023-10-29T13:44:02.524Z,99765.75
2023-10-29T13:46:29.928Z,99759.38
2023-10-29T13:48:57.207Z,99758.47
2023-10-29T13:51:24.361Z,99756.72
2023-10-29T13:53:51.742Z,99761.09
2023-10-29T13:56:18.729Z,99759.16
2023-10-29T13:58:45.615Z,99763.91
2023-10-29T14:01:20.281Z,99759.16
2023-10-29T14:03:48.505Z,99766.25
2023-10-29T14:06:16.622Z,99758.19
2023-10-29T14:08:43.822Z,99763.63
2023-10-29T14:11:11.060Z,99757.16
2023-10-29T14:13:37.944Z,99752.09
2023-10-29T14:16:05.030Z,99758.63
2023-10-29T14:18:31.994Z,99768.41
2023-10-29T14:20:59.132Z,99762.31
2023-10-29T14:23:26.191Z,99761.97
2023-10-29T14:25:53.060Z,99764.31
2023-10-29T14:28:20.162Z,99764.16
2023-10-29T14:30:47.296Z,99759.59
2023-10-29T14:33:14.275Z,99764.03
2023-10-29T14:35:41.327Z,99765.03
2023-10-29T14:38:09.455Z,99768.53
2023-10-29T14:40:36.594Z,99766.81
2023-10-29T14:43:20.588Z,99787.19
2023-10-29T14:45:52.888Z,99771.94
2023-10-29T14:48:21.043Z,99780.59
2023-10-29T14:50:49.129Z,99781.75
2023-10-29T14:53:16.379Z,99778.25
2023-10-29T14:55:50.198Z,99778.44
2023-10-29T14:58:17.636Z,99786.16
2023-10-29T15:00:45.829Z,99786.63
2023-10-29T15:03:13.739Z,99782.50
2023-10-29T15:05:41.039Z,99794.38
2023-10-29T15:08:08.815Z,99782.53
2023-10-29T15:10:35.968Z,99784.19
2023-10-29T15:13:03.002Z,99795.00
2023-10-29T15:15:31.930Z,99787.69
2023-10-29T15:17:59.032Z,99799.31
2023-10-29T15:20:28.279Z,99800.50
2023-10-29T15:22:55.621Z,99803.81
2023-10-29T15:25:22.714Z,99812.72
2023-10-29T15:27:49.642Z,99816.69
2023-10-29T15:30:16.605Z,99812.44
2023-10-29T15:32:43.622Z,99818.06
2023-10-29T15:35:10.814Z,99823.25
2023-10-29T15:37:39.679Z,99820.31
2023-10-29T15:40:07.967Z,99829.03
2023-10-29T15:42:34.909Z,99823.78
2023-10-29T15:45:02.038Z,99824.59
2023-10-29T15:47:29.637Z,99832.91
2023-10-29T15:49:56.585Z,99835.41
2023-10-29T15:52:23.839Z,99830.66
2023-10-29T15:54:51.159Z,99837.25
2023-10-29T15:57:19.349Z,99837.84
2023-10-29T15:59:46.531Z,99842.75
2023-10-29T16:02:13.538Z,99844.84
2023-10-29T16:04:40.622Z,99845.03
2023-10-29T16:07:09.450Z,99848.38
2023-10-29T16:09:36.874Z,99849.81
2023-10-29T16:12:08.832Z,99842.81
2023-10-29T16:14:36.584Z,99852.53
2023-10-29T16:17:04.504Z,99860.50
2023-10-29T16:19:31.942Z,99864.09
2023-10-29T16:21:59.023Z,99877.66
2023-10-29T16:24:28.182Z,99871.72
2023-10-29T16:26:55.303Z,99875.66
2023-10-29T16:29:22.944Z,99891.88
2023-10-29T16:31:49.815Z,99901.66
2023-10-29T16:34:16.742Z,99905.31
2023-10-29T16:36:43.715Z,99897.84
2023-10-29T16:39:11.282Z,99909.75
2023-10-29T16:41:38.299Z,99924.00
2023-10-29T16:44:05.242Z,99927.53
2023-10-29T16:46:33.143Z,99923.69
2023-10-29T16:49:02.468Z,99932.53
2023-10-29T16:51:30.273Z,99933.28
2023-10-29T16:53:57.460Z,99924.56
2023-10-29T16:56:24.361Z,99945.69
2023-10-29T16:58:51.307Z,99940.22
2023-10-29T17:01:19.159Z,99944.31
2023-10-29T17:03:47.162Z,99957.41
2023-10-29T17:06:15.858Z,99953.34
2023-10-29T17:08:43.015Z,99956.06
2023-10-29T17:11:09.981Z,99956.53
2023-10-29T17:13:37.116Z,99959.50
2023-10-29T17:16:05.318Z,99964.31
2023-10-29T17:18:32.546Z,99963.19
2023-10-29T17:21:00.962Z,99958.84
2023-10-29T17:23:28.510Z,99974.63
2023-10-29T17:25:56.511Z,99984.28
2023-10-29T17:28:23.583Z,99981.09
2023-10-29T17:30:50.490Z,99986.38
2023-10-29T17:33:17.531Z,99985.31
2023-10-29T17:35:44.584Z,99991.94
2023-10-29T17:38:11.536Z,99988.63
2023-10-29T17:40:38.445Z,99997.69
2023-10-29T17:43:05.478Z,100000.00
2023-10-29T17:45:44.153Z,99997.66
2023-10-29T17:48:11.525Z,100001.13
2023-10-29T17:50:38.520Z,100005.13
2023-10-29T17:53:05.540Z,100007.16
2023-10-29T17:55:32.478Z,100009.78
2023-10-29T17:58:01.035Z,100005.78
2023-10-29T18:00:28.284Z,99999.47
2023-10-29T18:02:55.517Z,100008.66
2023-10-29T18:05:24.292Z,100008.00
2023-10-29T18:07:51.260Z,100006.72
2023-10-29T18:10:18.668Z,100013.28
2023-10-29T18:12:46.089Z,100013.34
2023-10-29T18:15:13.202Z,100018.38
2023-10-29T18:17:40.200Z,100026.03
2023-10-29T18:20:08.054Z,100030.19
2023-10-29T18:22:34.965Z,100027.34
2023-10-29T18:25:01.945Z,100026.66
2023-10-29T18:27:28.892Z,100023.34
2023-10-29T18:29:55.973Z,100027.50
2023-10-29T18:32:22.907Z,100025.19
2023-10-29T18:34:50.045Z,100030.53
2023-10-29T18:37:17.165Z,100032.28
2023-10-29T18:39:44.039Z,100037.22
2023-10-29T18:42:11.046Z,100039.72
2023-10-29T18:44:37.938Z,100039.41
2023-10-29T18:47:05.547Z,100043.13
2023-10-29T18:49:32.576Z,100037.78
2023-10-29T18:51:59.450Z,100039.97
2023-10-29T18:54:26.870Z,100040.16
2023-10-29T18:56:54.112Z,100050.41
2023-10-29T18:59:22.803Z,100039.34
2023-10-29T19:01:49.937Z,100051.31
2023-10-29T19:04:17.171Z,100051.00
2023-10-29T19:06:44.404Z,100046.13
2023-10-29T19:09:11.828Z,100049.66
2023-10-29T19:11:39.458Z,100046.66
2023-10-29T19:14:06.603Z,100048.50
2023-10-29T19:16:33.648Z,100054.38
2023-10-29T19:19:02.504Z,100056.19
2023-10-29T19:21:29.817Z,100066.53
2023-10-29T19:23:57.238Z,100063.47
2023-10-29T19:26:24.288Z,100065.03
2023-10-29T19:28:51.541Z,100065.56
2023-10-29T19:31:24.018Z,100069.72
2023-10-29T19:33:55.449Z,100074.91
2023-10-29T19:36:22.721Z,100066.19
2023-10-29T19:38:49.772Z,100072.84
2023-10-29T19:41:16.648Z,100073.91
2023-10-29T19:43:43.589Z,100077.69
2023-10-29T19:46:11.228Z,100081.69
2023-10-29T19:48:38.701Z,100073.47
2023-10-29T19:51:09.275Z,100078.28
2023-10-29T19:53:37.017Z,100084.66
2023-10-29T19:56:07.915Z,100085.03
2023-10-29T19:58:34.847Z,100093.66
2023-10-29T20:01:09.467Z,100093.88
2023-10-29T20:03:37.844Z,100094.66
2023-10-29T20:06:08.676Z,100091.13
2023-10-29T20:08:36.929Z,100092.28
2023-10-29T20:11:21.792Z,100083.34
2023-10-29T20:13:49.993Z,100087.09
2023-10-29T20:16:16.977Z,100083.34
2023-10-29T20:18:44.267Z,100086.91
2023-10-29T20:21:19.201Z,100086.19
2023-10-29T20:23:47.684Z,100090.31
2023-10-29T20:26:16.241Z,100093.03
2023-10-29T20:28:43.471Z,100095.66
2023-10-29T20:31:10.596Z,100099.00
2023-10-29T20:33:37.583Z,100092.50
2023-10-29T20:36:05.463Z,100093.16
2023-10-29T20:38:32.592Z,100094.50
2023-10-29T20:40:59.584Z,100094.22
2023-10-29T20:43:26.429Z,100090.09
2023-10-29T20:45:54.301Z,100095.53
2023-10-29T20:48:23.140Z,100096.44
2023-10-29T20:50:54.822Z,100097.81
2023-10-29T20:53:22.024Z,100094.34
2023-10-29T20:55:48.888Z,100106.03
2023-10-29T20:58:15.774Z,100104.66
2023-10-29T21:00:47.560Z,100108.28
2023-10-29T21:03:14.483Z,100103.78
2023-10-29T21:05:41.865Z,100099.56
2023-10-29T21:08:08.914Z,100109.06
2023-10-29T21:10:35.823Z,100115.91
2023-10-29T21:13:02.711Z,100117.63
2023-10-29T21:15:29.629Z,100115.25
2023-10-29T21:17:56.553Z,100124.50
2023-10-29T21:20:27.594Z,100129.56
2023-10-29T21:22:54.825Z,100130.13
2023-10-29T21:25:21.759Z,100118.72
2023-10-29T21:27:48.759Z,100113.63
2023-10-29T21:30:15.778Z,100119.84
2023-10-29T21:32:45.669Z,100126.25
2023-10-29T21:35:12.574Z,100121.97
2023-10-29T21:37:39.550Z,100133.84
2023-10-29T21:40:07.352Z,100133.13
2023-10-29T21:42:34.367Z,100134.41
2023-10-29T21:45:01.470Z,100135.63
2023-10-29T21:47:28.460Z,100133.78
2023-10-29T21:49:55.398Z,100134.34
2023-10-29T21:52:22.323Z,100132.13
2023-10-29T21:54:51.751Z,100129.56
2023-10-29T21:57:19.461Z,100131.50
2023-10-29T21:59:49.215Z,100138.94
2023-10-29T22:02:16.401Z,100129.84
2023-10-29T22:04:43.520Z,100141.72
2023-10-29T22:07:10.380Z,100137.84
2023-10-29T22:09:37.572Z,100147.94
2023-10-29T22:12:04.990Z,100138.78
2023-10-29T22:14:32.109Z,100142.00
2023-10-29T22:16:59.114Z,100148.25
2023-10-29T22:19:26.143Z,100148.16
2023-10-29T22:21:53.158Z,100147.78
2023-10-29T22:24:20.177Z,100154.91
2023-10-29T22:26:47.157Z,100155.50
2023-10-29T22:29:14.031Z,100157.75
2023-10-29T22:31:40.901Z,100154.06
2023-10-29T22:34:07.712Z,100153.84
2023-10-29T22:36:34.714Z,100149.66
2023-10-29T22:39:01.660Z,100156.59
2023-10-29T22:41:28.604Z,100152.25
2023-10-29T22:43:55.567Z,100154.00
2023-10-29T22:46:23.929Z,100146.88
2023-10-29T22:48:52.317Z,100140.88
2023-10-29T22:51:19.939Z,100135.50
2023-10-29T22:53:47.064Z,100138.19
2023-10-29T22:56:14.417Z,100142.34
2023-10-29T22:58:41.406Z,100139.56
2023-10-29T23:01:10.993Z,100130.16
2023-10-29T23:03:38.114Z,100133.00
2023-10-29T23:06:06.141Z,100124.78
2023-10-29T23:08:33.496Z,100132.06
2023-10-29T23:11:00.777Z,100129.50
2023-10-29T23:13:27.653Z,100126.56
2023-10-29T23:15:56.753Z,100131.34
2023-10-29T23:18:25.686Z,100134.38
2023-10-29T23:20:53.734Z,100130.13
2023-10-29T23:23:20.772Z,100130.38
2023-10-29T23:25:47.706Z,100131.13
2023-10-29T23:28:30.223Z,100133.72
2023-10-29T23:31:01.694Z,100138.44
2023-10-29T23:33:28.894Z,100136.50
2023-10-29T23:35:56.019Z,100127.16
2023-10-29T23:38:22.940Z,100133.50
2023-10-29T23:40:49.889Z,100134.56
2023-10-29T23:43:16.859Z,100129.41
2023-10-29T23:45:43.802Z,100131.66
2023-10-29T23:48:12.415Z,100135.72
2023-10-29T23:50:39.476Z,100144.19
2023-10-29T23:53:07.470Z,100137.56
2023-10-29T23:55:34.445Z,100148.09
2023-10-29T23:58:01.692Z,100142.13
